Jameson, Missouri
Current Conditions -  °F | °C
As of 7:33 PM on Monday 22 Dec 2014 (Local Time) from KLWD Reporting Station
Haze Haze  
Wind Chill:   Ceiling: 300
Heat Index:   Visibility: 1mi
Dew Point:   Wind: 3mph
Humidity: 96%   Direction: 110°ESE
Pressure: 29.42"   Gusts: NA
Location:  40.01°N, 93.98°W
Report Text: KLWD 230133Z AUTO 11003KT 1SM BR VV003 06/05 A2942 RMK AO2 T00560050
Loading
Personal Weather Stations






























Interactive Weather Map New forecast layout! Learn more

10-Day Weather Forecast

Advertisements
Track Severe Weather on mobile